Time;durP1;ratioP1;P1;durP2;ratioP2;P2;SDS_P1;SDS_P2;PMS_P1;PMS_P2;Temp;Humidity;BMP_temperature;BMP_pressure;BME280_temperature;BME280_humidity;BME280_pressure;Samples;Min_cycle;Max_cycle;Signal;HPM_P1;HPM_P2
2022/12/15 00:39:58;;;;;;;33.93;19.50;;;-2.70;83.10;;;-3.20;78.72;96774.56;5097972;28;20465;-68
2022/12/15 00:42:27;;;;;;;39.10;18.93;;;-2.60;82.30;;;-3.23;79.13;96782.81;5093603;28;20529;-69
2022/12/15 00:44:55;;;;;;;32.47;20.40;;;-2.70;82.20;;;-3.27;79.72;96757.69;5097491;28;20870;-73
2022/12/15 00:47:21;;;;;;;33.53;18.70;;;-2.60;82.50;;;-3.52;79.11;96760.25;5083878;28;20444;-70
2022/12/15 01:20:16;;;;;;;37.33;21.47;;;-2.60;82.20;;;-3.78;82.59;96808.59;5090278;28;20487;-70
2022/12/15 01:22:46;;;;;;;36.03;22.13;;;-2.90;84.20;;;-3.72;82.90;96823.00;5078540;28;20443;-73
2022/12/15 01:25:17;;;;;;;38.40;23.70;;;-3.00;87.40;;;-3.63;82.74;96806.22;5105063;28;20432;-73
2022/12/15 01:27:45;;;;;;;44.70;23.30;;;-2.90;88.10;;;-3.53;82.40;96806.13;5104449;28;20459;-72
2022/12/15 01:30:16;;;;;;;38.10;24.00;;;-2.80;88.70;;;-3.31;82.47;96815.31;5110765;28;20444;-71
2022/12/15 01:32:43;;;;;;;33.50;22.37;;;-2.70;88.40;;;-3.15;81.89;96819.84;5088002;28;20480;-69
2022/12/15 01:35:12;;;;;;;41.57;24.33;;;-2.70;87.60;;;-3.25;81.71;96826.25;5088188;28;20433;-69
2022/12/15 01:37:39;;;;;;;34.63;23.67;;;-2.70;87.40;;;-3.48;82.15;96824.97;5075642;28;20461;-71
2022/12/15 01:42:54;;;;;;;34.00;23.27;;;-2.70;86.40;;;-3.50;82.43;96832.22;5070805;28;20450;-71
2022/12/15 01:46:01;;;;;;;43.43;23.73;;;-2.70;86.50;;;-3.42;81.66;96828.78;5088167;28;20611;-69
2022/12/15 01:48:36;;;;;;;37.37;21.70;;;-2.70;87.00;;;-3.44;82.78;96842.13;5081751;28;20826;-70
2022/12/15 01:51:25;;;;;;;38.00;24.33;;;-2.80;87.20;;;-3.25;82.44;96840.28;5086073;28;20433;-70
2022/12/15 01:54:02;;;;;;;38.37;23.37;;;-2.70;88.40;;;-3.43;81.92;96838.50;5092226;28;20481;-70
2022/12/15 01:56:33;;;;;;;39.30;24.33;;;-2.70;86.00;;;-3.37;82.46;96846.81;5090452;28;20492;-70
2022/12/15 01:59:04;;;;;;;37.60;22.73;;;-2.70;86.40;;;-3.65;83.21;96860.97;5078176;28;20570;-68
2022/12/15 02:06:55;;;;;;;38.67;24.27;;;-3.00;88.70;;;-3.54;83.40;96883.69;5024723;22;20482;-69
2022/12/15 02:09:24;;;;;;;41.57;24.57;;;-3.00;90.20;;;-3.72;83.30;96892.44;5019854;28;20470;-71
2022/12/15 02:12:01;;;;;;;38.13;22.90;;;-3.00;88.80;;;-3.99;84.25;96885.47;5019453;28;20479;-70
2022/12/15 02:15:00;;;;;;;40.00;23.97;;;-3.20;89.00;;;-3.79;83.79;96890.56;5015063;28;20575;-69
2022/12/15 02:17:37;;;;;;;42.90;24.03;;;-3.10;90.20;;;-3.75;83.58;96873.47;5014333;28;20467;-68
2022/12/15 02:20:35;;;;;;;41.77;24.87;;;-3.10;90.20;;;-3.84;84.14;96872.56;5018369;28;20459;-69
2022/12/15 02:23:45;;;;;;;39.93;23.43;;;-3.10;90.20;;;-3.82;83.91;96881.16;5024764;28;20475;-69
2022/12/15 02:26:48;;;;;;;37.93;23.20;;;-3.10;90.00;;;-3.77;83.79;96864.88;5011586;28;21012;-69
2022/12/15 07:29:29;;;;;;;38.50;23.23;;;-3.00;89.60;;;-3.57;82.47;97096.09;5021773;28;20818;-68
2022/12/15 07:31:59;;;;;;;44.47;24.73;;;-3.00;89.70;;;-3.60;82.48;97092.91;5027069;28;20477;-68
2022/12/15 07:34:26;;;;;;;49.63;25.63;;;-3.00;88.80;;;-3.42;82.96;97109.59;5018765;28;20451;-68
2022/12/15 07:36:54;;;;;;;43.00;24.70;;;-2.90;90.10;;;-3.40;82.39;97100.72;5013153;28;20463;-69
2022/12/15 07:39:21;;;;;;;42.47;26.00;;;-2.90;89.30;;;-3.35;82.08;97103.75;5016053;28;20455;-70
2022/12/15 07:41:48;;;;;;;46.17;27.80;;;-2.90;89.90;;;-3.33;81.75;97107.06;5018192;28;20490;-70
2022/12/15 07:44:15;;;;;;;41.50;23.40;;;-2.90;88.90;;;-3.61;82.36;97112.38;5015625;28;20458;-68
2022/12/15 07:46:45;;;;;;;42.63;26.27;;;-3.00;87.80;;;-3.81;83.42;97114.28;5023026;28;20524;-68
2022/12/15 07:49:13;;;;;;;45.83;25.07;;;-3.00;88.20;;;-3.85;83.16;97093.47;5020653;28;20551;-68
2022/12/15 07:51:40;;;;;;;48.90;28.20;;;-3.10;88.80;;;-3.81;83.84;97098.44;5025047;28;21019;-67
2022/12/15 07:54:12;;;;;;;50.30;34.25;;;-3.20;89.70;;;-3.68;83.17;97103.38;5022246;28;20461;-68
2022/12/15 07:56:39;;;;;;;54.67;29.37;;;-3.20;90.30;;;-3.78;83.28;97085.78;5026046;28;20299;-69
2022/12/15 07:59:08;;;;;;;48.70;28.93;;;-3.20;90.50;;;-3.70;83.23;97122.84;5020531;28;20461;-69
2022/12/15 08:01:35;;;;;;;52.50;28.57;;;-3.20;90.40;;;-3.78;83.97;97125.38;5011023;28;21325;-69
2022/12/15 08:04:04;;;;;;;43.13;25.60;;;-3.30;90.90;;;-3.84;83.85;97125.97;5018928;28;20540;-70
2022/12/15 08:06:31;;;;;;;50.27;26.70;;;-3.30;91.40;;;-3.92;84.34;97124.06;5015663;28;20470;-69
2022/12/15 08:08:58;;;;;;;45.97;25.63;;;-3.30;90.60;;;-4.37;83.63;97051.75;5016967;28;20469;-68
2022/12/15 08:11:26;;;;;;;45.33;26.47;;;-3.40;90.90;;;-3.92;83.72;97128.50;5017476;28;20474;-69
2022/12/15 08:13:53;;;;;;;42.20;26.00;;;-3.50;91.50;;;-3.96;84.20;97130.59;5012966;28;20902;-69
2022/12/15 08:16:20;;;;;;;43.70;25.73;;;-3.50;91.60;;;-4.00;84.27;97134.50;5012701;28;20462;-69
2022/12/15 08:18:48;;;;;;;43.23;24.13;;;-3.60;91.90;;;-3.91;84.18;97135.44;5014105;28;20495;-71
2022/12/15 08:21:17;;;;;;;46.80;24.77;;;-3.40;92.70;;;-3.93;84.21;97135.59;5012668;28;20496;-69
2022/12/15 08:23:44;;;;;;;48.07;26.10;;;-3.40;91.90;;;-3.89;84.11;97141.41;5017315;28;20946;-70
2022/12/15 08:26:15;;;;;;;45.33;25.37;;;-3.40;92.10;;;-3.91;84.49;97151.28;5017019;28;20450;-71
2022/12/15 08:28:43;;;;;;;53.20;25.60;;;-3.40;91.70;;;-3.87;84.55;97147.38;5016960;28;20465;-71
2022/12/15 08:31:17;;;;;;;48.53;26.20;;;-3.30;91.90;;;-3.88;84.40;97150.97;5024933;28;20481;-71
2022/12/15 08:33:45;;;;;;;50.17;26.47;;;-3.40;92.30;;;-4.04;84.99;97155.06;5031512;28;20529;-75
2022/12/15 08:36:17;;;;;;;50.10;28.63;;;-3.30;92.00;;;-3.91;85.64;97153.91;5020143;28;20500;-73
2022/12/15 08:38:45;;;;;;;47.97;28.13;;;-3.20;92.80;;;-3.80;85.35;97153.75;5008394;28;20554;-70
2022/12/15 08:41:15;;;;;;;45.93;27.97;;;-3.10;92.70;;;-3.67;84.91;97153.41;5018786;28;20861;-72
2022/12/15 08:43:43;;;;;;;45.70;27.30;;;-3.00;92.40;;;-3.62;84.54;97135.31;5018053;28;20545;-71
2022/12/15 08:46:11;;;;;;;45.30;28.50;;;-2.90;91.20;;;-3.48;84.22;97155.09;5023668;28;20946;-69
2022/12/15 08:48:38;;;;;;;47.77;28.40;;;-2.80;90.70;;;-3.30;83.96;97170.16;5018343;28;20464;-70
2022/12/15 08:51:06;;;;;;;46.43;28.87;;;-2.80;91.00;;;-3.31;83.53;97168.50;5012767;28;20455;-70
2022/12/15 08:53:35;;;;;;;47.33;27.73;;;-2.70;90.70;;;-3.37;83.10;97169.09;5021797;28;20510;-70
2022/12/15 08:56:05;;;;;;;49.97;28.07;;;-2.70;90.20;;;-3.44;83.40;97174.97;5024878;28;20466;-71
2022/12/15 08:58:32;;;;;;;45.93;27.40;;;-2.80;89.80;;;-3.56;83.74;97171.69;5019736;28;21049;-72
2022/12/15 09:01:05;;;;;;;52.67;29.20;;;-2.80;89.60;;;-3.65;83.86;97180.47;5019518;28;20454;-71
2022/12/15 09:03:33;;;;;;;50.80;27.67;;;-2.90;89.50;;;-3.68;84.24;97169.41;5015248;28;20960;-72
2022/12/15 09:06:03;;;;;;;44.70;27.80;;;-3.00;90.20;;;-3.56;83.76;97176.16;5019154;28;20818;-70
2022/12/15 09:08:30;;;;;;;50.43;28.83;;;-3.00;90.50;;;-3.42;83.24;97167.72;5019382;28;20543;-70
2022/12/15 09:11:00;;;;;;;45.83;28.30;;;-3.00;90.50;;;-3.37;82.65;97177.03;5019559;28;20542;-72
2022/12/15 09:13:28;;;;;;;51.33;29.77;;;-3.00;90.20;;;-3.48;82.62;97183.34;5022180;28;20509;-70
2022/12/15 09:15:59;;;;;;;52.43;30.07;;;-2.90;90.20;;;-3.47;83.23;97175.25;5019823;28;20458;-69
2022/12/15 09:18:26;;;;;;;49.27;29.17;;;-2.90;90.10;;;-3.53;83.42;97181.16;5023501;28;20459;-72
2022/12/15 09:20:55;;;;;;;49.60;26.90;;;-3.00;89.70;;;-3.42;82.78;97188.03;5019474;28;20612;-71
2022/12/15 09:23:22;;;;;;;48.03;29.30;;;-3.00;90.00;;;-3.45;83.07;97189.16;5004822;28;20460;-70
2022/12/15 09:25:50;;;;;;;58.17;29.53;;;-3.00;90.30;;;-3.47;83.08;97204.31;5016586;28;20467;-70
2022/12/15 09:28:18;;;;;;;52.30;30.37;;;-2.90;90.50;;;-3.48;83.13;97218.50;5023368;28;20464;-70
2022/12/15 09:30:46;;;;;;;54.40;28.17;;;-2.90;90.10;;;-3.46;83.53;97213.91;5021899;28;20505;-70
2022/12/15 09:33:13;;;;;;;57.77;29.50;;;-2.90;90.30;;;-3.57;82.95;97174.47;5022729;28;20535;-71
2022/12/15 09:35:40;;;;;;;50.70;30.17;;;-2.90;90.10;;;-3.22;84.37;97214.34;5014865;28;20641;-71
2022/12/15 09:38:08;;;;;;;46.37;28.47;;;-2.80;90.80;;;-3.04;84.22;97214.38;5020985;28;20456;-72
2022/12/15 09:40:35;;;;;;;46.53;28.87;;;-2.60;92.00;;;-2.99;82.88;97205.03;5014131;28;21419;-69
2022/12/15 09:43:02;;;;;;;56.03;30.67;;;-2.60;92.10;;;-3.02;82.19;97200.03;5016620;28;21371;-75
2022/12/15 09:45:39;;;;;;;51.43;30.20;;;-2.50;89.50;;;-2.95;81.77;97189.72;5015626;28;20451;-72
2022/12/15 09:48:12;;;;;;;46.07;29.40;;;-2.40;88.60;;;-2.85;81.02;97171.13;5019086;28;20543;-71
2022/12/15 09:50:42;;;;;;;59.37;31.97;;;-2.30;86.80;;;-2.99;80.38;97131.00;5016895;28;20471;-74
2022/12/15 09:53:13;;;;;;;52.00;30.87;;;-2.20;83.80;;;-2.78;80.88;97156.28;5016646;28;20555;-69
2022/12/15 09:55:43;;;;;;;52.73;29.40;;;-2.20;84.30;;;-2.70;80.38;97155.53;5015079;28;20568;-71
2022/12/15 09:58:21;;;;;;;48.53;29.40;;;-2.20;84.30;;;-2.80;80.18;97155.63;5038878;28;20524;-70
2022/12/15 10:00:56;;;;;;;55.37;29.40;;;-2.10;83.10;;;-2.77;80.05;97157.13;5019559;28;20461;-70
2022/12/15 10:03:40;;;;;;;53.27;30.40;;;-2.20;82.60;;;-2.99;80.65;97143.38;5021158;28;20470;-70
2022/12/15 10:06:14;;;;;;;47.03;29.30;;;-2.20;83.10;;;-2.94;80.58;97151.72;5017493;28;20470;-68
2022/12/15 10:08:45;;;;;;;53.43;31.10;;;-2.30;83.00;;;-3.00;80.82;97141.72;5018900;28;20459;-68
2022/12/15 10:11:26;;;;;;;55.63;31.37;;;-2.30;83.60;;;-3.01;80.98;97166.50;5015763;28;20495;-71
2022/12/15 10:14:02;;;;;;;55.00;31.30;;;-2.30;83.70;;;-3.04;80.86;97175.53;5017889;28;20484;-69
2022/12/15 10:16:40;;;;;;;105.27;55.53;;;-2.30;83.80;;;-2.91;80.15;97150.56;5017972;28;21028;-69
2022/12/15 10:19:14;;;;;;;65.80;35.70;;;-2.30;84.50;;;-2.87;80.24;97173.91;5018129;28;20996;-68
2022/12/15 10:21:42;;;;;;;56.90;30.80;;;-2.40;84.00;;;-2.88;79.85;97164.31;5021702;28;20455;-68
2022/12/15 10:24:16;;;;;;;52.90;30.63;;;-2.30;84.10;;;-2.79;79.94;97173.16;5020421;28;20650;-72
2022/12/15 10:26:49;;;;;;;86.20;41.93;;;-2.30;84.50;;;-2.76;79.46;97161.44;5023377;28;20813;-69
2022/12/15 10:29:33;;;;;;;48.00;28.70;;;-2.30;84.60;;;-3.01;79.74;97156.75;5019348;28;20451;-71
2022/12/15 10:32:06;;;;;;;48.60;29.77;;;-2.30;82.60;;;-3.07;80.36;97145.97;5021293;28;20457;-71
2022/12/15 10:34:36;;;;;;;51.17;31.20;;;-2.40;83.10;;;-3.23;80.32;97128.97;5021589;28;20483;-70
2022/12/15 10:37:04;;;;;;;49.10;28.07;;;-2.40;83.30;;;-3.26;80.12;97134.56;5023320;28;20465;-68
2022/12/15 10:39:40;;;;;;;49.00;30.00;;;-2.50;83.00;;;-3.36;80.35;97144.34;5025749;28;20472;-71
2022/12/15 10:42:19;;;;;;;47.43;28.03;;;-2.50;82.00;;;-3.31;80.22;97140.28;5029161;28;21041;-70
2022/12/15 10:44:49;;;;;;;44.73;28.50;;;-2.60;82.60;;;-3.36;80.54;97128.50;5030631;28;20608;-70
2022/12/15 10:47:24;;;;;;;43.53;27.33;;;-2.70;83.10;;;-3.32;80.23;97125.41;5027738;28;20470;-70
2022/12/15 10:49:53;;;;;;;46.53;27.40;;;-2.70;83.80;;;-3.33;80.77;97122.91;5030108;28;20501;-70
2022/12/15 10:52:26;;;;;;;44.13;27.30;;;-2.70;83.80;;;-3.25;80.08;97124.81;5034046;28;20463;-69
2022/12/15 10:54:55;;;;;;;51.53;28.50;;;-2.70;83.60;;;-3.20;80.21;97117.25;5026928;28;20576;-70
2022/12/15 10:57:27;;;;;;;49.77;28.10;;;-2.70;84.20;;;-3.20;80.21;97122.53;5031612;28;20899;-68
2022/12/15 10:59:56;;;;;;;47.80;27.27;;;-2.70;84.00;;;-3.36;80.08;97099.44;5028222;28;20462;-71
2022/12/15 11:02:35;;;;;;;44.17;26.63;;;-2.70;83.90;;;-3.23;80.25;97121.03;5038493;28;20446;-70
2022/12/15 11:05:06;;;;;;;49.40;26.87;;;-2.70;83.70;;;-3.20;79.41;97107.53;5031007;28;21331;-72
2022/12/15 11:07:38;;;;;;;52.03;30.03;;;-2.60;83.30;;;-3.10;79.70;97101.34;5033160;28;21075;-71
2022/12/15 11:10:21;;;;;;;48.90;27.10;;;-2.60;83.60;;;-3.09;79.85;97098.53;5039197;28;20463;-68
2022/12/15 11:12:59;;;;;;;50.60;29.70;;;-2.60;83.40;;;-3.07;79.10;97106.31;5037448;28;20529;-71
2022/12/15 11:15:45;;;;;;;44.10;27.07;;;-2.50;83.10;;;-3.15;79.38;97096.50;5034039;28;20455;-72
2022/12/15 11:18:37;;;;;;;49.17;27.30;;;-2.60;83.00;;;-3.08;79.57;97102.00;5041682;28;20457;-70
2022/12/15 11:21:12;;;;;;;47.20;26.70;;;-2.60;82.90;;;-3.16;79.49;97095.66;5024022;28;20463;-68
2022/12/15 11:23:56;;;;;;;46.93;26.63;;;-2.50;82.40;;;-3.15;79.01;97096.50;5028921;28;20463;-72
2022/12/15 11:26:35;;;;;;;44.67;25.60;;;-2.50;81.90;;;-3.04;79.40;97098.06;5021454;28;20535;-71
2022/12/15 11:29:24;;;;;;;44.07;26.00;;;-2.60;82.00;;;-2.86;78.58;97098.06;5038780;28;20458;-70
2022/12/15 11:31:53;;;;;;;44.17;24.30;;;-2.50;82.70;;;-2.83;78.59;97096.91;5028570;28;20459;-70
2022/12/15 11:34:26;;;;;;;45.30;26.33;;;-2.40;82.30;;;-2.69;77.89;97098.19;5020962;28;20567;-70
2022/12/15 11:37:17;;;;;;;36.40;24.03;;;-2.30;81.50;;;-2.61;77.63;97096.44;5034053;28;20521;-70
2022/12/15 11:40:01;;;;;;;38.73;25.57;;;-2.20;81.10;;;-2.45;77.44;97095.69;5039619;28;20562;-73
2022/12/15 11:42:44;;;;;;;39.13;25.00;;;-2.00;80.80;;;-2.93;76.62;97039.69;5042696;28;20473;-69
2022/12/15 11:45:19;;;;;;;44.60;26.30;;;-1.90;78.60;;;-2.58;76.58;97092.63;5036338;28;20800;-71
2022/12/15 11:47:50;;;;;;;45.07;26.60;;;-1.90;77.80;;;-2.66;76.80;97098.69;5040606;28;20568;-71
2022/12/15 11:50:28;;;;;;;42.00;24.60;;;-1.80;77.90;;;-2.33;76.43;97091.00;5051922;28;20481;-71
2022/12/15 11:53:13;;;;;;;43.17;25.10;;;-1.70;77.80;;;-2.21;75.14;97082.78;5040114;28;20465;-70
2022/12/15 11:55:50;;;;;;;39.90;24.90;;;-1.50;77.20;;;-2.21;74.64;97069.53;5026986;28;20463;-71
2022/12/15 11:58:59;;;;;;;37.90;25.40;;;-1.40;76.60;;;-2.01;75.08;97073.63;5038192;28;20517;-71
2022/12/15 12:01:50;;;;;;;43.40;24.80;;;-1.30;76.90;;;-1.78;74.40;97072.22;5036553;28;20897;-72
2022/12/15 12:04:23;;;;;;;40.83;25.57;;;-1.10;76.50;;;-1.50;74.05;97074.63;5033321;28;20447;-72
2022/12/15 12:07:07;;;;;;;44.70;26.60;;;-0.90;76.20;;;-1.23;72.52;97062.91;5030999;28;20511;-71
2022/12/15 12:09:37;;;;;;;41.27;24.47;;;-0.60;75.50;;;-0.92;71.70;97070.22;5035707;28;20469;-71
2022/12/15 12:12:17;;;;;;;43.27;25.57;;;-0.40;75.20;;;-0.70;71.07;97062.56;5037782;28;20473;-71
2022/12/15 12:14:58;;;;;;;32.77;22.70;;;-0.20;74.70;;;-0.64;70.31;97058.41;5027706;28;20509;-71
2022/12/15 12:17:40;;;;;;;36.47;24.13;;;-0.10;74.30;;;-0.71;70.18;97055.59;5037451;28;20467;-71
2022/12/15 12:20:18;;;;;;;42.07;25.73;;;-0.10;73.80;;;-0.86;70.27;97058.94;5026397;28;20489;-71
2022/12/15 12:22:57;;;;;;;37.47;24.07;;;-0.20;73.40;;;-0.88;70.64;97063.56;5029139;28;20546;-69
2022/12/15 12:25:25;;;;;;;35.57;24.53;;;-0.30;73.80;;;-1.00;70.73;97060.44;5020495;28;20467;-71
2022/12/15 12:27:58;;;;;;;39.87;25.47;;;-0.40;73.70;;;-1.20;72.15;97062.56;5025022;28;20504;-71
2022/12/15 12:30:28;;;;;;;40.40;24.30;;;-0.40;74.20;;;-1.15;72.47;97068.19;5018677;28;20464;-70
2022/12/15 12:33:04;;;;;;;40.27;25.13;;;-0.50;74.50;;;-1.25;73.20;97070.19;5017159;28;20495;-71
2022/12/15 12:35:40;;;;;;;41.87;25.97;;;-0.50;74.70;;;-0.90;71.98;97062.91;5017002;28;20457;-72
2022/12/15 12:38:11;;;;;;;36.10;24.20;;;-0.40;74.80;;;-0.84;72.57;97055.28;5017937;28;20470;-72
2022/12/15 12:40:55;;;;;;;39.53;26.87;;;-0.30;75.20;;;-1.02;72.43;97049.19;5019177;28;21025;-69
2022/12/15 12:43:32;;;;;;;41.17;25.70;;;-0.30;74.90;;;-0.83;72.35;97060.44;5035961;28;20540;-70
2022/12/15 12:46:08;;;;;;;35.83;22.60;;;-0.30;75.20;;;-0.63;71.57;97055.63;5025410;28;20677;-72
2022/12/15 12:48:40;;;;;;;41.27;26.13;;;-0.30;74.90;;;-0.59;71.01;97059.59;5016483;28;20537;-71
2022/12/15 12:51:24;;;;;;;39.97;25.27;;;-0.20;74.60;;;-0.48;71.44;97062.88;5021389;28;20466;-72
2022/12/15 12:53:53;;;;;;;39.20;24.40;;;-0.10;74.90;;;-0.40;70.37;97062.84;5017804;28;20483;-72
2022/12/15 12:56:35;;;;;;;42.33;25.73;;;0.00;74.30;;;-0.37;70.67;97046.63;5016376;28;20469;-70
2022/12/15 12:59:07;;;;;;;40.90;24.93;;;0.00;74.40;;;-0.43;70.54;97041.97;5025145;28;20486;-71
2022/12/15 13:01:36;;;;;;;39.13;24.47;;;0.10;74.30;;;-0.33;70.18;97025.84;5016252;28;20954;-72
2022/12/15 13:04:11;;;;;;;34.63;23.67;;;0.10;74.10;;;-0.33;70.39;97024.03;5021476;28;20577;-73
2022/12/15 13:07:04;;;;;;;35.80;23.20;;;0.10;74.10;;;-0.18;70.01;97013.53;5013620;28;20573;-73
2022/12/15 13:09:41;;;;;;;38.13;24.50;;;0.20;74.00;;;-0.33;70.12;97010.75;5017749;28;20457;-70
2022/12/15 13:12:37;;;;;;;41.10;25.57;;;0.30;74.10;;;-0.53;70.96;96999.69;5013386;28;20464;-71
2022/12/15 13:15:14;;;;;;;33.93;22.70;;;0.10;74.00;;;-0.46;71.38;96987.38;5017722;28;20484;-71
2022/12/15 13:17:44;;;;;;;39.60;24.93;;;0.10;74.40;;;-0.69;72.31;96974.03;5009327;28;20463;-71
2022/12/15 13:20:31;;;;;;;43.67;26.30;;;0.00;74.70;;;-1.16;72.89;96941.94;5032639;28;20463;-72
2022/12/15 13:23:36;;;;;;;38.47;23.90;;;-0.20;75.00;;;-0.92;73.31;96977.41;5014380;28;20447;-71
2022/12/15 13:26:18;;;;;;;36.03;25.13;;;-0.30;74.90;;;-0.81;74.12;96965.59;5026791;28;21048;-73
2022/12/15 13:28:56;;;;;;;38.33;25.53;;;-0.30;75.80;;;-0.62;73.20;96961.75;5020887;28;20526;-71
2022/12/15 13:31:42;;;;;;;35.80;23.87;;;-0.20;75.80;;;-0.75;73.17;96970.25;5016512;28;20460;-71
2022/12/15 13:34:23;;;;;;;42.67;26.13;;;-0.10;75.80;;;-0.60;73.29;96977.50;5016777;28;21201;-72
2022/12/15 13:36:59;;;;;;;37.90;24.57;;;-0.10;75.80;;;-0.79;74.02;96987.47;5016307;28;20477;-81
2022/12/15 13:39:57;;;;;;;43.93;26.20;;;-0.20;76.00;;;-0.61;74.00;97002.34;5016473;28;20525;-69
2022/12/15 13:42:35;;;;;;;43.87;26.90;;;-0.10;76.20;;;-0.70;74.18;97000.75;5018359;28;20830;-71
2022/12/15 13:45:49;;;;;;;39.60;26.53;;;-0.20;76.30;;;-0.61;74.02;96997.91;5017239;28;20455;-70
2022/12/15 13:48:36;;;;;;;44.90;27.00;;;-0.10;76.70;;;-0.64;73.65;96992.94;5018459;28;20456;-71
2022/12/15 13:51:21;;;;;;;45.40;27.83;;;-0.10;76.30;;;-0.43;73.78;96983.56;5017742;28;20463;-73
2022/12/15 13:53:55;;;;;;;49.03;29.57;;;0.00;76.70;;;-1.03;74.08;96916.75;5019632;28;20484;-72
2022/12/15 13:56:40;;;;;;;47.00;28.93;;;-0.10;76.60;;;-0.18;72.88;96996.78;5029180;28;20804;-70
2022/12/15 13:59:20;;;;;;;40.67;27.60;;;0.10;77.00;;;-0.15;72.49;96986.66;5013864;28;20460;-71
2022/12/15 14:01:52;;;;;;;48.73;29.80;;;0.20;76.00;;;-0.10;72.04;96994.06;5017416;28;20467;-71
2022/12/15 14:04:22;;;;;;;40.43;26.83;;;0.30;75.90;;;-0.13;72.25;96988.28;5026127;28;20453;-71
2022/12/15 14:06:52;;;;;;;41.10;27.77;;;0.30;75.90;;;-0.21;72.65;96981.19;5029947;28;20461;-71
2022/12/15 14:09:27;;;;;;;45.20;27.70;;;0.20;75.90;;;-0.30;72.66;96973.25;5034291;28;20461;-72
2022/12/15 14:11:54;;;;;;;46.53;28.83;;;0.20;75.90;;;-0.52;73.20;96979.31;5025044;28;20457;-70
2022/12/15 14:14:26;;;;;;;40.13;27.60;;;0.00;75.90;;;-0.49;73.00;96973.66;5015635;28;20474;-70
2022/12/15 14:17:00;;;;;;;48.03;28.80;;;-0.10;75.90;;;-0.49;73.35;96971.00;5022024;28;20529;-71
2022/12/15 14:19:39;;;;;;;45.80;27.47;;;-0.10;76.20;;;-0.76;74.63;96988.97;5036378;28;20446;-73
2022/12/15 14:22:23;;;;;;;63.30;34.27;;;-0.30;76.60;;;-0.77;74.22;96960.78;5031955;28;20479;-70
2022/12/15 14:24:53;;;;;;;45.10;27.80;;;-0.30;76.90;;;-0.74;74.35;96977.22;5027789;28;20480;-70
2022/12/15 14:27:25;;;;;;;46.23;28.47;;;-0.30;77.00;;;-0.83;74.19;96958.78;5024097;28;20483;-70
2022/12/15 14:30:20;;;;;;;45.47;28.83;;;-0.40;76.70;;;-1.01;74.84;96970.44;5030796;28;20537;-72
2022/12/15 14:32:52;;;;;;;42.90;27.53;;;-0.50;77.20;;;-1.11;75.65;96972.44;5026060;28;20450;-71
2022/12/15 14:35:27;;;;;;;46.40;29.30;;;-0.60;77.60;;;-1.29;76.37;96979.56;5023204;28;20568;-70
2022/12/15 14:37:58;;;;;;;44.73;26.80;;;-0.70;77.90;;;-1.29;76.09;96981.38;5027672;28;20475;-70
2022/12/15 14:40:26;;;;;;;46.33;29.73;;;-0.80;78.20;;;-1.45;77.68;96980.38;5022587;28;20534;-70
2022/12/15 14:42:54;;;;;;;45.20;26.47;;;-0.80;78.90;;;-1.50;76.97;96977.41;5022869;28;20531;-70
2022/12/15 14:45:27;;;;;;;43.60;26.60;;;-0.90;79.10;;;-2.02;77.73;96909.63;5026693;28;21003;-70
2022/12/15 14:47:58;;;;;;;45.07;27.00;;;-1.00;79.70;;;-1.72;77.96;96987.66;5020434;28;20462;-70
2022/12/15 14:50:26;;;;;;;44.67;25.77;;;-1.10;80.10;;;-1.71;78.77;96983.16;5025619;28;20472;-71
2022/12/15 14:52:57;;;;;;;41.10;26.53;;;-1.20;81.00;;;-1.73;78.69;96986.00;5019975;28;20506;-71
2022/12/15 14:55:32;;;;;;;45.70;28.77;;;-1.20;81.70;;;-1.91;79.06;96985.28;5033212;28;20490;-70
2022/12/15 14:58:00;;;;;;;46.77;26.90;;;-1.40;82.00;;;-2.02;79.15;96981.97;5015352;28;20446;-69
2022/12/15 15:00:31;;;;;;;45.90;27.40;;;-1.50;82.40;;;-2.25;80.30;96986.16;5017565;28;20447;-70
2022/12/15 15:03:21;;;;;;;50.07;26.23;;;-1.70;83.30;;;-2.15;79.57;96992.16;5026975;28;20621;-71
2022/12/15 15:05:53;;;;;;;45.47;27.67;;;-1.60;83.50;;;-2.29;80.06;96991.78;5018477;28;20499;-70
2022/12/15 15:08:27;;;;;;;50.67;28.33;;;-1.80;84.50;;;-2.35;80.84;96995.06;5023864;28;20514;-70
2022/12/15 15:10:56;;;;;;;39.17;26.40;;;-1.90;85.40;;;-2.40;80.58;96981.47;5027240;28;20457;-72
2022/12/15 15:13:27;;;;;;;47.50;29.97;;;-1.90;86.20;;;-2.51;81.22;96973.81;5022926;28;20958;-70
2022/12/15 15:16:02;;;;;;;44.27;28.60;;;-2.00;86.80;;;-2.52;81.66;96966.84;5029805;28;20483;-70
2022/12/15 15:18:30;;;;;;;47.87;29.10;;;-1.90;87.10;;;-2.58;81.81;96950.66;5016489;28;20553;-70
2022/12/15 15:21:01;;;;;;;46.33;28.73;;;-2.00;88.10;;;-2.53;82.25;96960.75;5023244;28;20502;-71
2022/12/15 15:23:29;;;;;;;48.53;31.13;;;-2.00;88.30;;;-2.60;82.47;96949.97;5016259;28;20456;-71
2022/12/15 15:25:57;;;;;;;47.87;29.77;;;-2.00;87.90;;;-2.65;82.22;96946.16;5019365;28;20456;-71
2022/12/15 15:28:27;;;;;;;50.07;30.50;;;-2.10;88.50;;;-2.65;82.44;96954.09;5022729;28;20466;-72
2022/12/15 15:31:04;;;;;;;49.07;30.50;;;-2.10;89.50;;;-2.62;82.34;96957.25;5020319;28;20479;-73
2022/12/15 15:33:31;;;;;;;52.90;29.00;;;-2.10;89.70;;;-2.60;82.69;96943.84;5023163;28;20823;-72
2022/12/15 15:36:01;;;;;;;50.50;28.80;;;-2.10;90.20;;;-2.62;83.29;96949.31;5011064;28;20474;-77
2022/12/15 15:38:32;;;;;;;42.90;26.87;;;-2.10;90.40;;;-2.60;83.14;96946.50;5010245;28;20453;-71
2022/12/15 15:41:09;;;;;;;47.10;29.70;;;-2.10;90.60;;;-2.57;83.12;96954.13;5013252;28;20459;-70
2022/12/15 15:43:36;;;;;;;47.37;28.80;;;-2.10;90.60;;;-2.54;82.79;96953.81;5022869;28;21100;-72
2022/12/15 15:46:10;;;;;;;51.97;31.67;;;-2.10;90.60;;;-2.48;82.89;96962.94;5009073;28;20522;-72
2022/12/15 15:48:43;;;;;;;49.93;30.30;;;-2.00;90.60;;;-2.62;83.03;96949.31;5014381;28;20494;-74
2022/12/15 15:51:11;;;;;;;49.07;32.03;;;-2.00;90.00;;;-2.50;82.34;96964.88;5030603;28;20459;-73
2022/12/15 15:53:39;;;;;;;54.97;31.50;;;-2.00;90.50;;;-2.49;82.27;96956.00;5013250;28;20465;-74
2022/12/15 15:56:11;;;;;;;51.10;32.27;;;-2.00;90.00;;;-2.39;81.72;96954.03;5021207;28;20532;-73
2022/12/15 15:58:38;;;;;;;53.93;30.50;;;-1.90;89.50;;;-2.50;81.95;96956.94;5023282;28;20481;-72
2022/12/15 16:01:07;;;;;;;51.03;31.50;;;-1.90;88.20;;;-2.37;81.95;96970.56;5022340;28;21101;-72
2022/12/15 16:03:34;;;;;;;48.63;31.20;;;-1.90;89.30;;;-2.51;82.09;96974.66;5024284;28;20483;-72
2022/12/15 16:06:02;;;;;;;54.80;31.33;;;-2.00;88.30;;;-2.36;81.79;96969.56;5015902;28;20458;-72
2022/12/15 16:08:35;;;;;;;50.23;30.50;;;-1.90;89.90;;;-2.52;82.41;96974.78;5024997;28;20618;-72
2022/12/15 16:11:03;;;;;;;57.23;33.43;;;-1.90;88.10;;;-2.52;82.44;96977.44;5024317;28;20458;-70
2022/12/15 16:13:30;;;;;;;54.23;31.90;;;-1.90;88.50;;;-2.67;82.54;96967.44;5023084;28;20453;-72
2022/12/15 16:15:57;;;;;;;54.10;32.50;;;-2.00;88.50;;;-2.66;82.81;96971.75;5019347;28;20538;-71
2022/12/15 16:18:25;;;;;;;50.20;31.80;;;-2.00;88.80;;;-2.58;82.14;96976.25;5026376;28;20451;-72
2022/12/15 16:20:53;;;;;;;60.63;33.30;;;-2.00;88.30;;;-2.71;82.81;96963.47;5018955;28;20453;-71
2022/12/15 16:23:23;;;;;;;60.07;35.40;;;-2.10;88.60;;;-2.71;82.80;96955.53;5023335;28;20455;-70
2022/12/15 16:25:53;;;;;;;54.83;33.50;;;-2.20;88.60;;;-2.77;83.03;96953.53;5041017;28;20948;-71
2022/12/15 16:28:23;;;;;;;55.13;33.10;;;-2.30;89.30;;;-2.65;82.63;96940.84;5019345;28;20451;-70
2022/12/15 16:30:51;;;;;;;56.13;32.37;;;-2.20;90.50;;;-2.67;81.90;96951.59;5024280;28;20514;-71
2022/12/15 16:33:19;;;;;;;61.73;33.50;;;-2.20;89.20;;;-2.81;82.56;96923.94;5020387;28;20455;-70
2022/12/15 16:35:50;;;;;;;54.57;31.73;;;-2.20;89.90;;;-2.93;82.55;96904.03;5014088;28;20487;-72
2022/12/15 16:38:23;;;;;;;51.60;33.00;;;-2.20;90.20;;;-2.51;82.51;96944.72;5012548;28;20482;-70
2022/12/15 16:40:51;;;;;;;56.13;33.57;;;-2.10;91.00;;;-2.43;82.49;96944.75;5014310;28;20452;-71
2022/12/15 16:43:20;;;;;;;49.90;32.37;;;-2.00;90.40;;;-2.45;82.10;96954.66;5025571;28;20522;-70
2022/12/15 16:45:51;;;;;;;52.03;30.67;;;-2.00;89.70;;;-2.50;81.86;96952.50;5016585;28;20809;-71
2022/12/15 16:48:19;;;;;;;58.93;32.60;;;-2.00;88.90;;;-2.44;82.25;96949.22;5015294;28;20510;-72
2022/12/15 16:50:51;;;;;;;52.57;30.87;;;-1.90;88.90;;;-2.40;81.96;96933.84;5015282;28;20462;-71